Austin, Utah
Current Conditions -  °F | °C
As of 1:52 PM on Saturday 20 Dec 2014 (Local Time) from KMLF Reporting Station
Overcast Overcast  
Wind Chill:   Ceiling: 8000
Heat Index:   Visibility: 10mi
Dew Point: -2°   Wind: 16mph
Humidity: 62%   Direction: 190°S
Pressure: 30.06"   Gusts: NA
Location:  38.6125°N, 112.081°W
Report Text: KMLF 202052Z AUTO 19014KT 10SM OVC080 05/M02 A3006 RMK AO2 SLP178 T00501017 56017 TSNO
Loading
Personal Weather Stations






























Interactive Weather Map New forecast layout! Learn more

10-Day Weather Forecast

Advertisements
Track Severe Weather on mobile